createdAt,value
2022-09-23T00:00:50.030Z,988.207
2022-09-23T00:02:50.144Z,988.213
2022-09-23T00:04:50.580Z,988.243
2022-09-23T00:06:49.879Z,988.236
2022-09-23T00:08:49.964Z,988.202
2022-09-23T00:10:50.117Z,988.173
2022-09-23T00:12:49.911Z,988.132
2022-09-23T00:14:50.748Z,988.134
2022-09-23T00:16:50.320Z,988.188
2022-09-23T00:18:50.219Z,988.180
2022-09-23T00:20:50.245Z,988.192
2022-09-23T00:22:50.011Z,988.192
2022-09-23T00:24:50.244Z,988.126
2022-09-23T00:26:49.879Z,988.187
2022-09-23T00:28:50.143Z,988.194
2022-09-23T00:30:50.288Z,988.215
2022-09-23T00:32:50.537Z,988.194
2022-09-23T00:34:50.174Z,988.231
2022-09-23T00:36:49.875Z,988.175
2022-09-23T00:38:49.795Z,988.157
2022-09-23T00:40:51.027Z,988.160
2022-09-23T00:42:50.301Z,988.072
2022-09-23T00:44:50.467Z,988.083
2022-09-23T00:46:50.719Z,988.042
2022-09-23T00:48:50.476Z,987.995
2022-09-23T00:50:50.216Z,987.942
2022-09-23T00:52:50.246Z,987.979
2022-09-23T00:54:50.189Z,987.972
2022-09-23T00:56:50.317Z,987.967
2022-09-23T00:58:50.151Z,987.941
2022-09-23T01:00:49.837Z,987.923
2022-09-23T01:02:50.027Z,987.946
2022-09-23T01:04:50.732Z,987.886
2022-09-23T01:06:49.858Z,987.934
2022-09-23T01:08:49.766Z,987.912
2022-09-23T01:10:50.607Z,987.923
2022-09-23T01:12:50.676Z,987.923
2022-09-23T01:14:50.433Z,987.928
2022-09-23T01:16:50.877Z,987.910
2022-09-23T01:18:49.864Z,987.891
2022-09-23T01:20:49.847Z,987.908
2022-09-23T01:22:49.813Z,987.908
2022-09-23T01:24:50.648Z,987.869
2022-09-23T01:26:49.847Z,987.854
2022-09-23T01:28:50.649Z,987.818
2022-09-23T01:30:50.647Z,987.808
2022-09-23T01:32:50.672Z,987.821
2022-09-23T01:34:50.122Z,987.818
2022-09-23T01:36:50.603Z,987.807
2022-09-23T01:38:50.556Z,987.807
2022-09-23T01:40:51.030Z,987.813
2022-09-23T01:42:49.982Z,987.835
2022-09-23T01:44:49.868Z,987.795
2022-09-23T01:46:50.053Z,987.746
2022-09-23T01:48:49.844Z,987.756
2022-09-23T01:50:50.643Z,987.760
2022-09-23T01:52:50.492Z,987.784
2022-09-23T01:54:50.295Z,987.739
2022-09-23T01:56:50.676Z,987.677
2022-09-23T01:58:50.561Z,987.682
2022-09-23T02:00:50.651Z,987.657
2022-09-23T02:02:50.414Z,987.636
2022-09-23T02:04:49.911Z,987.634
2022-09-23T02:06:50.336Z,987.692
2022-09-23T02:08:50.309Z,987.676
2022-09-23T02:10:50.193Z,987.654
2022-09-23T02:12:50.206Z,987.667
2022-09-23T02:14:50.154Z,987.656
2022-09-23T02:16:50.609Z,987.614
2022-09-23T02:18:50.736Z,987.626
2022-09-23T02:20:50.490Z,987.626
2022-09-23T02:22:50.374Z,987.617
2022-09-23T02:24:50.152Z,987.609
2022-09-23T02:26:50.160Z,987.610
2022-09-23T02:28:50.065Z,987.606
2022-09-23T02:30:49.901Z,987.606
2022-09-23T02:32:50.704Z,987.620
2022-09-23T02:34:50.110Z,987.619
2022-09-23T02:36:50.332Z,987.566
2022-09-23T02:38:50.188Z,987.618
2022-09-23T02:40:50.400Z,987.564
2022-09-23T02:42:50.592Z,987.590
2022-09-23T02:44:50.404Z,987.563
2022-09-23T02:46:50.646Z,987.591
2022-09-23T02:48:50.513Z,987.583
2022-09-23T02:50:50.174Z,987.554
2022-09-23T02:52:49.980Z,987.562
2022-09-23T02:54:49.973Z,987.592
2022-09-23T02:56:50.066Z,987.544
2022-09-23T02:58:49.804Z,987.563
2022-09-23T03:00:50.864Z,987.570
2022-09-23T03:02:50.028Z,987.492
2022-09-23T03:04:50.269Z,987.506
2022-09-23T03:06:50.502Z,987.561
2022-09-23T03:08:50.450Z,987.551
2022-09-23T03:10:50.144Z,987.512
2022-09-23T03:12:49.886Z,987.503
2022-09-23T03:14:50.771Z,987.482
2022-09-23T03:16:50.091Z,987.464
2022-09-23T03:18:50.070Z,987.484
2022-09-23T03:20:50.098Z,987.495
2022-09-23T03:22:49.995Z,987.482
2022-09-23T03:24:54.463Z,987.488
2022-09-23T03:26:49.839Z,987.467
2022-09-23T03:28:50.540Z,987.461
2022-09-23T03:30:50.399Z,987.448
2022-09-23T03:32:50.291Z,987.436
2022-09-23T03:34:50.696Z,987.434
2022-09-23T03:36:49.954Z,987.434
2022-09-23T03:38:50.612Z,987.434
2022-09-23T03:40:50.633Z,987.343
2022-09-23T03:42:49.803Z,987.312
2022-09-23T03:44:50.556Z,987.278
2022-09-23T03:46:50.103Z,987.293
2022-09-23T03:48:49.948Z,987.248
2022-09-23T03:50:49.806Z,987.242
2022-09-23T03:52:50.615Z,987.234
2022-09-23T03:54:50.455Z,987.216
2022-09-23T03:56:50.604Z,987.214
2022-09-23T03:58:50.412Z,987.214
2022-09-23T04:00:50.501Z,987.230
2022-09-23T04:02:50.556Z,987.256
2022-09-23T04:04:50.005Z,987.212
2022-09-23T04:06:50.330Z,987.199
2022-09-23T04:08:50.308Z,987.201
2022-09-23T04:10:55.153Z,987.151
2022-09-23T04:12:49.928Z,987.212
2022-09-23T04:14:50.594Z,987.190
2022-09-23T04:16:50.723Z,987.119
2022-09-23T04:18:49.819Z,987.114
2022-09-23T04:20:50.672Z,987.114
2022-09-23T04:22:50.621Z,987.084
2022-09-23T04:24:50.542Z,987.117
2022-09-23T04:26:50.649Z,987.117
2022-09-23T04:28:50.329Z,987.075
2022-09-23T04:30:50.187Z,987.071
2022-09-23T04:32:50.035Z,987.082
2022-09-23T04:34:50.245Z,987.089
2022-09-23T04:36:50.338Z,987.078
2022-09-23T04:38:50.263Z,987.096
2022-09-23T04:40:50.529Z,987.054
2022-09-23T04:42:50.566Z,987.078
2022-09-23T04:44:50.296Z,987.115
2022-09-23T04:46:50.690Z,987.077
2022-09-23T04:48:50.683Z,987.026
2022-09-23T04:50:50.409Z,987.044
2022-09-23T04:52:50.344Z,987.014
2022-09-23T04:54:50.018Z,986.989
2022-09-23T04:56:50.057Z,986.992
2022-09-23T04:58:50.148Z,987.017
2022-09-23T05:00:49.992Z,987.080
2022-09-23T05:02:50.021Z,987.050
2022-09-23T05:04:50.519Z,987.050
2022-09-23T05:06:50.611Z,987.031
2022-09-23T05:08:50.458Z,987.080
2022-09-23T05:10:50.385Z,987.100
2022-09-23T05:12:57.537Z,987.127
2022-09-23T05:14:50.573Z,987.113
2022-09-23T05:16:50.649Z,987.059
2022-09-23T05:18:50.574Z,987.070
2022-09-23T05:20:50.336Z,987.124
2022-09-23T05:22:50.209Z,987.068
2022-09-23T05:24:50.625Z,987.117
2022-09-23T05:26:50.689Z,987.128
2022-09-23T05:28:50.488Z,987.130
2022-09-23T05:30:50.273Z,987.156
2022-09-23T05:32:50.128Z,987.144
2022-09-23T05:34:50.540Z,987.183
2022-09-23T05:36:49.845Z,987.188
2022-09-23T05:38:50.171Z,987.196
2022-09-23T05:40:50.475Z,987.196
2022-09-23T05:42:50.767Z,987.188
2022-09-23T05:44:50.760Z,987.171
2022-09-23T05:46:50.043Z,987.139
2022-09-23T05:48:50.220Z,987.166
2022-09-23T05:50:49.912Z,987.125
2022-09-23T05:52:50.771Z,987.157
2022-09-23T05:54:49.818Z,987.161
2022-09-23T05:56:49.873Z,987.166
2022-09-23T05:58:49.917Z,987.209
2022-09-23T06:00:50.640Z,987.184
2022-09-23T06:02:50.772Z,987.221
2022-09-23T06:04:50.202Z,987.200
2022-09-23T06:06:50.222Z,987.209
2022-09-23T06:08:50.102Z,987.218
2022-09-23T06:10:54.885Z,987.175
2022-09-23T06:12:50.748Z,987.187
2022-09-23T06:14:50.625Z,987.162
2022-09-23T06:16:50.064Z,987.167
2022-09-23T06:18:50.026Z,987.195
2022-09-23T06:20:49.930Z,987.143
2022-09-23T06:22:55.785Z,987.134
2022-09-23T06:24:50.680Z,987.164
2022-09-23T06:26:49.826Z,987.188
2022-09-23T06:28:49.794Z,987.165
2022-09-23T06:30:50.688Z,987.168
2022-09-23T06:32:50.371Z,987.164
2022-09-23T06:34:52.411Z,987.192
2022-09-23T06:36:50.516Z,987.184
2022-09-23T06:38:50.429Z,987.192
2022-09-23T06:40:50.268Z,987.227
2022-09-23T06:42:52.713Z,987.250
2022-09-23T06:44:50.662Z,987.209
2022-09-23T06:46:50.020Z,987.190
2022-09-23T06:48:50.356Z,987.153
2022-09-23T06:50:50.069Z,987.159
2022-09-23T06:52:50.799Z,987.110
2022-09-23T06:54:50.741Z,987.137
2022-09-23T06:56:50.034Z,987.111
2022-09-23T06:58:49.836Z,987.099
2022-09-23T07:00:49.886Z,987.081
2022-09-23T07:02:50.930Z,987.083
2022-09-23T07:04:50.517Z,987.116
2022-09-23T07:06:50.618Z,987.077
2022-09-23T07:08:50.401Z,987.078
2022-09-23T07:10:50.396Z,987.058
2022-09-23T07:12:50.163Z,987.046
2022-09-23T07:14:49.997Z,987.027
2022-09-23T07:16:50.091Z,987.047
2022-09-23T07:18:49.884Z,987.045
2022-09-23T07:20:49.796Z,987.032
2022-09-23T07:22:50.698Z,987.028
2022-09-23T07:24:50.711Z,987.000
2022-09-23T07:26:50.021Z,986.981
2022-09-23T07:28:50.697Z,986.996
2022-09-23T07:31:01.183Z,986.986
2022-09-23T07:32:50.170Z,986.997
2022-09-23T07:34:49.803Z,986.982
2022-09-23T07:36:49.997Z,986.993
2022-09-23T07:38:49.925Z,987.018
2022-09-23T07:40:49.972Z,987.008
2022-09-23T07:42:50.168Z,987.007
2022-09-23T07:44:50.133Z,986.989
2022-09-23T07:46:50.585Z,987.033
2022-09-23T07:48:49.992Z,987.065
2022-09-23T07:50:49.967Z,987.050
2022-09-23T07:52:49.902Z,987.081
2022-09-23T07:54:50.675Z,987.084
2022-09-23T07:56:50.678Z,987.099
2022-09-23T07:58:50.644Z,987.064
2022-09-23T08:00:49.818Z,986.976
2022-09-23T08:02:53.492Z,986.990
2022-09-23T08:04:50.183Z,986.943
2022-09-23T08:06:50.304Z,986.943
2022-09-23T08:08:53.858Z,986.910
2022-09-23T08:10:50.172Z,986.914
2022-09-23T08:12:50.035Z,986.911
2022-09-23T08:14:49.921Z,986.840
2022-09-23T08:16:50.006Z,986.855
2022-09-23T08:18:50.173Z,986.828
2022-09-23T08:20:50.305Z,986.855
2022-09-23T08:22:50.250Z,986.825
2022-09-23T08:24:54.543Z,986.837
2022-09-23T08:26:50.108Z,986.793
2022-09-23T08:28:50.099Z,986.825
2022-09-23T08:30:50.526Z,986.809
2022-09-23T08:32:50.746Z,986.795
2022-09-23T08:34:50.117Z,986.805
2022-09-23T08:36:50.143Z,986.784
2022-09-23T08:38:49.902Z,986.793
2022-09-23T08:40:50.701Z,986.784
2022-09-23T08:42:50.524Z,986.791
2022-09-23T08:44:50.203Z,986.780
2022-09-23T08:46:50.527Z,986.773
2022-09-23T08:48:50.735Z,986.767
2022-09-23T08:50:50.737Z,986.758
2022-09-23T08:52:50.652Z,986.750
2022-09-23T08:54:55.876Z,986.729
2022-09-23T08:56:50.057Z,986.698
2022-09-23T08:58:49.844Z,986.660
2022-09-23T09:00:49.880Z,986.665
2022-09-23T09:02:49.988Z,986.643
2022-09-23T09:04:50.579Z,986.559
2022-09-23T09:07:03.549Z,986.524
2022-09-23T09:08:50.749Z,986.511
2022-09-23T09:10:50.536Z,986.509
2022-09-23T09:12:50.556Z,986.516
2022-09-23T09:14:50.489Z,986.565
2022-09-23T09:17:01.670Z,986.499
2022-09-23T09:18:50.558Z,986.486
2022-09-23T09:20:50.400Z,986.436
2022-09-23T09:22:50.467Z,986.430
2022-09-23T09:24:50.210Z,986.439
2022-09-23T09:26:49.833Z,986.423
2022-09-23T09:28:50.340Z,986.404
2022-09-23T09:30:50.178Z,986.437
2022-09-23T09:32:50.297Z,986.423
2022-09-23T09:34:50.421Z,986.439
2022-09-23T09:36:50.656Z,986.421
2022-09-23T09:38:50.094Z,986.347
2022-09-23T09:40:50.386Z,986.335
2022-09-23T09:42:49.955Z,986.292
2022-09-23T09:44:50.201Z,986.276
2022-09-23T09:46:51.001Z,986.237
2022-09-23T09:48:50.638Z,986.153
2022-09-23T09:50:50.729Z,986.145
2022-09-23T09:52:50.628Z,986.114
2022-09-23T09:54:50.326Z,986.108
2022-09-23T09:56:50.124Z,986.077
2022-09-23T09:58:49.929Z,986.073
2022-09-23T10:00:50.020Z,986.067
2022-09-23T10:02:49.956Z,986.024
2022-09-23T10:04:50.185Z,986.053
2022-09-23T10:06:50.537Z,986.038
2022-09-23T10:08:50.394Z,986.063
2022-09-23T10:10:50.300Z,986.060
2022-09-23T10:12:50.315Z,985.975
2022-09-23T10:14:50.277Z,985.918
2022-09-23T10:16:50.769Z,985.901
2022-09-23T10:18:50.485Z,985.872
2022-09-23T10:20:50.584Z,985.924
2022-09-23T10:22:50.737Z,985.914
2022-09-23T10:24:50.334Z,985.808
2022-09-23T10:26:50.368Z,985.820
2022-09-23T10:28:50.699Z,985.808
2022-09-23T10:30:50.694Z,985.794
2022-09-23T10:32:50.273Z,985.796
2022-09-23T10:34:50.500Z,985.785
2022-09-23T10:36:49.765Z,985.738
2022-09-23T10:38:50.614Z,985.749
2022-09-23T10:40:51.172Z,985.760
2022-09-23T10:42:49.866Z,985.729
2022-09-23T10:44:49.836Z,985.715
2022-09-23T10:46:49.845Z,985.715
2022-09-23T10:48:50.716Z,985.697
2022-09-23T10:50:50.536Z,985.676
2022-09-23T10:52:50.350Z,985.609
2022-09-23T10:54:50.111Z,985.590
2022-09-23T10:56:50.375Z,985.493
2022-09-23T10:58:50.736Z,985.542
2022-09-23T11:00:50.598Z,985.448
2022-09-23T11:02:50.466Z,985.467
2022-09-23T11:04:50.233Z,985.454
2022-09-23T11:06:50.518Z,985.344
2022-09-23T11:08:50.429Z,985.325
2022-09-23T11:10:50.305Z,985.325
2022-09-23T11:12:50.195Z,985.356
2022-09-23T11:14:49.852Z,985.364
2022-09-23T11:16:50.148Z,985.355
2022-09-23T11:18:50.397Z,985.346
2022-09-23T11:20:50.370Z,985.317
2022-09-23T11:22:50.306Z,985.303
2022-09-23T11:24:49.862Z,985.274
2022-09-23T11:26:49.860Z,985.246
2022-09-23T11:28:49.954Z,985.302
2022-09-23T11:30:50.005Z,985.253
2022-09-23T11:32:50.367Z,985.272
2022-09-23T11:34:55.319Z,985.211
2022-09-23T11:36:50.479Z,985.156
2022-09-23T11:38:50.374Z,985.109
2022-09-23T11:40:50.483Z,985.067
2022-09-23T11:42:50.586Z,985.043
2022-09-23T11:44:50.531Z,985.011
2022-09-23T11:46:49.816Z,985.021
2022-09-23T11:48:49.836Z,984.988
2022-09-23T11:50:49.916Z,984.958
2022-09-23T11:52:49.768Z,984.906
2022-09-23T11:54:50.692Z,984.875
2022-09-23T11:56:49.812Z,984.884
2022-09-23T11:59:03.379Z,984.821
2022-09-23T12:01:01.162Z,984.854
2022-09-23T12:03:06.522Z,984.824
2022-09-23T12:04:58.972Z,984.848
2022-09-23T12:06:49.856Z,984.806
2022-09-23T12:08:50.724Z,984.807
2022-09-23T12:10:49.835Z,984.779
2022-09-23T12:12:49.870Z,984.779
2022-09-23T12:14:50.745Z,984.745
2022-09-23T12:16:50.196Z,984.713
2022-09-23T12:18:50.536Z,984.712
2022-09-23T12:20:50.389Z,984.679
2022-09-23T12:22:50.200Z,984.678
2022-09-23T12:24:49.945Z,984.662
2022-09-23T12:26:50.163Z,984.682
2022-09-23T12:28:50.123Z,984.633
2022-09-23T12:30:50.365Z,984.577
2022-09-23T12:32:50.587Z,984.539
2022-09-23T12:34:50.099Z,984.505
2022-09-23T12:36:50.533Z,984.454
2022-09-23T12:38:50.192Z,984.431
2022-09-23T12:40:50.479Z,984.486
2022-09-23T12:42:50.439Z,984.434
2022-09-23T12:44:50.363Z,984.436
2022-09-23T12:46:50.679Z,984.380
2022-09-23T12:48:50.469Z,984.384
2022-09-23T12:50:50.256Z,984.346
2022-09-23T12:52:50.244Z,984.259
2022-09-23T12:54:50.185Z,984.256
2022-09-23T12:56:50.514Z,984.231
2022-09-23T12:58:50.243Z,984.244
2022-09-23T13:00:50.191Z,984.193
2022-09-23T13:02:50.311Z,984.250
2022-09-23T13:04:50.448Z,984.278
2022-09-23T13:06:50.696Z,984.243
2022-09-23T13:08:50.639Z,984.200
2022-09-23T13:10:50.512Z,984.160
2022-09-23T13:12:50.328Z,984.140
2022-09-23T13:14:49.994Z,984.160
2022-09-23T13:16:50.316Z,984.123
2022-09-23T13:18:50.566Z,984.108
2022-09-23T13:20:50.680Z,984.044
2022-09-23T13:22:50.590Z,984.067
2022-09-23T13:24:50.464Z,983.965
2022-09-23T13:26:50.418Z,983.917
2022-09-23T13:28:50.443Z,983.942
2022-09-23T13:30:50.240Z,983.878
2022-09-23T13:32:50.258Z,983.846
2022-09-23T13:34:50.624Z,983.847
2022-09-23T13:36:49.954Z,983.849
2022-09-23T13:38:49.858Z,983.832
2022-09-23T13:40:50.133Z,983.817
2022-09-23T13:42:50.195Z,983.755
2022-09-23T13:44:50.253Z,983.677
2022-09-23T13:46:50.627Z,983.672
2022-09-23T13:48:50.446Z,983.637
2022-09-23T13:50:50.281Z,983.600
2022-09-23T13:52:50.235Z,983.597
2022-09-23T13:54:50.311Z,983.620
2022-09-23T13:56:49.961Z,983.615
2022-09-23T13:58:49.856Z,983.599
2022-09-23T14:00:50.961Z,983.671
2022-09-23T14:02:50.261Z,983.653
2022-09-23T14:04:50.103Z,983.687
2022-09-23T14:06:50.532Z,983.641
2022-09-23T14:08:50.442Z,983.646
2022-09-23T14:10:50.284Z,983.597
2022-09-23T14:12:50.431Z,983.602
2022-09-23T14:14:50.415Z,983.568
2022-09-23T14:16:50.879Z,983.532
2022-09-23T14:18:50.685Z,983.522
2022-09-23T14:20:50.564Z,983.469
2022-09-23T14:22:50.552Z,983.504
2022-09-23T14:24:50.353Z,983.484
2022-09-23T14:26:50.487Z,983.473
2022-09-23T14:28:50.391Z,983.399
2022-09-23T14:30:50.382Z,983.394
2022-09-23T14:32:50.184Z,983.385
2022-09-23T14:34:50.637Z,983.369
2022-09-23T14:36:49.890Z,983.358
2022-09-23T14:38:50.644Z,983.354
2022-09-23T14:40:50.906Z,983.326
2022-09-23T14:42:50.121Z,983.324
2022-09-23T14:44:50.094Z,983.325
2022-09-23T14:46:50.487Z,983.282
2022-09-23T14:48:50.582Z,983.290
2022-09-23T14:50:50.545Z,983.302
2022-09-23T14:52:50.379Z,983.254
2022-09-23T14:54:50.323Z,983.233
2022-09-23T14:56:49.812Z,983.233
2022-09-23T14:58:53.491Z,983.212
2022-09-23T15:00:50.505Z,983.153
2022-09-23T15:02:50.473Z,983.218
2022-09-23T15:04:50.731Z,983.174
2022-09-23T15:06:49.904Z,983.171
2022-09-23T15:08:49.820Z,983.166
2022-09-23T15:10:50.718Z,983.094
2022-09-23T15:12:50.558Z,983.097
2022-09-23T15:14:50.433Z,983.042
2022-09-23T15:16:50.781Z,983.018
2022-09-23T15:18:50.681Z,982.989
2022-09-23T15:20:50.547Z,983.019
2022-09-23T15:22:50.456Z,983.017
2022-09-23T15:24:50.208Z,983.076
2022-09-23T15:26:50.507Z,983.030
2022-09-23T15:28:50.364Z,982.979
2022-09-23T15:30:50.278Z,982.976
2022-09-23T15:32:50.233Z,982.951
2022-09-23T15:34:49.880Z,983.022
2022-09-23T15:36:50.057Z,983.037
2022-09-23T15:38:49.824Z,983.008
2022-09-23T15:40:50.236Z,983.008
2022-09-23T15:42:50.427Z,982.955
2022-09-23T15:44:50.069Z,982.871
2022-09-23T15:46:50.228Z,982.866
2022-09-23T15:48:50.103Z,982.862
2022-09-23T15:50:50.080Z,982.873
2022-09-23T15:52:49.962Z,982.862
2022-09-23T15:54:49.795Z,982.861
2022-09-23T15:56:49.865Z,982.940
2022-09-23T15:58:49.840Z,982.930
2022-09-23T16:00:57.192Z,982.916
2022-09-23T16:02:50.404Z,982.897
2022-09-23T16:04:50.643Z,982.887
2022-09-23T16:06:50.782Z,982.891
2022-09-23T16:08:50.527Z,982.878
2022-09-23T16:10:50.340Z,982.809
2022-09-23T16:12:50.190Z,982.851
2022-09-23T16:14:49.947Z,982.842
2022-09-23T16:16:50.380Z,982.840
2022-09-23T16:18:50.295Z,982.848
2022-09-23T16:20:50.041Z,982.845
2022-09-23T16:22:49.889Z,982.841
2022-09-23T16:24:50.696Z,982.818
2022-09-23T16:26:49.864Z,982.815
2022-09-23T16:28:50.540Z,982.785
2022-09-23T16:30:50.394Z,982.765
2022-09-23T16:32:50.310Z,982.756
2022-09-23T16:34:50.506Z,982.703
2022-09-23T16:36:49.825Z,982.678
2022-09-23T16:38:50.736Z,982.674
2022-09-23T16:40:50.985Z,982.644
2022-09-23T16:42:50.123Z,982.610
2022-09-23T16:44:50.139Z,982.622
2022-09-23T16:46:50.340Z,982.620
2022-09-23T16:48:53.386Z,982.666
2022-09-23T16:50:50.410Z,982.697
2022-09-23T16:52:50.119Z,982.648
2022-09-23T16:54:49.851Z,982.636
2022-09-23T16:56:50.031Z,982.643
2022-09-23T16:58:50.801Z,982.672
2022-09-23T17:00:50.769Z,982.701
2022-09-23T17:02:49.985Z,982.712
2022-09-23T17:04:50.383Z,982.725
2022-09-23T17:06:50.808Z,982.693
2022-09-23T17:08:50.730Z,982.681
2022-09-23T17:10:50.606Z,982.703
2022-09-23T17:12:50.567Z,982.696
2022-09-23T17:14:50.523Z,982.652
2022-09-23T17:16:50.753Z,982.674
2022-09-23T17:18:50.695Z,982.667
2022-09-23T17:20:50.637Z,982.653
2022-09-23T17:22:50.509Z,982.612
2022-09-23T17:24:50.259Z,982.654
2022-09-23T17:26:53.785Z,982.644
2022-09-23T17:28:50.694Z,982.650
2022-09-23T17:30:50.572Z,982.636
2022-09-23T17:32:50.395Z,982.653
2022-09-23T17:34:50.732Z,982.657
2022-09-23T17:36:50.737Z,982.668
2022-09-23T17:38:49.851Z,982.716
2022-09-23T17:40:50.905Z,982.716
2022-09-23T17:42:49.954Z,982.734
2022-09-23T17:44:50.003Z,982.742
2022-09-23T17:46:50.218Z,982.701
2022-09-23T17:48:50.189Z,982.722
2022-09-23T17:50:49.996Z,982.723
2022-09-23T17:52:49.858Z,982.743
2022-09-23T17:54:49.848Z,982.750
2022-09-23T17:56:50.347Z,982.772
2022-09-23T17:58:49.983Z,982.791
2022-09-23T18:00:51.100Z,982.758
2022-09-23T18:02:50.147Z,982.758
2022-09-23T18:04:50.561Z,982.747
2022-09-23T18:06:49.825Z,982.758
2022-09-23T18:08:50.588Z,982.748
2022-09-23T18:10:50.459Z,982.805
2022-09-23T18:12:50.150Z,982.804
2022-09-23T18:14:50.072Z,982.799
2022-09-23T18:16:50.212Z,982.764
2022-09-23T18:18:49.883Z,982.779
2022-09-23T18:20:50.682Z,982.742
2022-09-23T18:22:50.630Z,982.720
2022-09-23T18:24:50.345Z,982.761
2022-09-23T18:26:50.653Z,982.742
2022-09-23T18:28:50.522Z,982.767
2022-09-23T18:30:50.491Z,982.729
2022-09-23T18:32:50.369Z,982.691
2022-09-23T18:34:50.723Z,982.664
2022-09-23T18:36:50.661Z,982.642
2022-09-23T18:38:50.399Z,982.635
2022-09-23T18:40:50.752Z,982.653
2022-09-23T18:42:50.764Z,982.668
2022-09-23T18:44:50.593Z,982.651
2022-09-23T18:46:49.824Z,982.679
2022-09-23T18:48:49.810Z,982.703
2022-09-23T18:50:50.698Z,982.695
2022-09-23T18:52:50.483Z,982.726
2022-09-23T18:54:55.283Z,982.770
2022-09-23T18:56:50.525Z,982.730
2022-09-23T18:58:50.179Z,982.674
2022-09-23T19:00:50.296Z,982.692
2022-09-23T19:02:50.666Z,982.748
2022-09-23T19:04:50.107Z,982.734
2022-09-23T19:06:50.507Z,982.744
2022-09-23T19:08:50.324Z,982.684
2022-09-23T19:10:50.288Z,982.711
2022-09-23T19:12:50.309Z,982.702
2022-09-23T19:14:50.137Z,982.723
2022-09-23T19:16:50.303Z,982.689
2022-09-23T19:18:50.278Z,982.689
2022-09-23T19:20:50.158Z,982.715
2022-09-23T19:22:49.981Z,982.690
2022-09-23T19:24:50.010Z,982.699
2022-09-23T19:26:50.292Z,982.703
2022-09-23T19:28:50.331Z,982.689
2022-09-23T19:30:50.305Z,982.689
2022-09-23T19:32:50.321Z,982.772
2022-09-23T19:34:49.821Z,982.777
2022-09-23T19:36:49.993Z,982.761
2022-09-23T19:38:50.817Z,982.746
2022-09-23T19:40:51.293Z,982.817
2022-09-23T19:42:50.284Z,982.774
2022-09-23T19:44:50.132Z,982.774
2022-09-23T19:46:57.662Z,982.800
2022-09-23T19:48:49.797Z,982.801
2022-09-23T19:50:49.866Z,982.809
2022-09-23T19:52:50.706Z,982.802
2022-09-23T19:54:50.337Z,982.755
2022-09-23T19:56:50.274Z,982.764
2022-09-23T19:58:49.889Z,982.778
2022-09-23T20:00:50.717Z,982.783
2022-09-23T20:02:50.727Z,982.735
2022-09-23T20:04:50.008Z,982.719
2022-09-23T20:06:50.263Z,982.709
2022-09-23T20:08:50.297Z,982.695
2022-09-23T20:10:50.177Z,982.707
2022-09-23T20:12:50.118Z,982.682
2022-09-23T20:14:49.865Z,982.693
2022-09-23T20:16:50.061Z,982.668
2022-09-23T20:18:50.776Z,982.715
2022-09-23T20:20:50.611Z,982.699
2022-09-23T20:22:50.502Z,982.709
2022-09-23T20:24:50.365Z,982.690
2022-09-23T20:26:50.618Z,982.625
2022-09-23T20:28:50.564Z,982.624
2022-09-23T20:30:50.469Z,982.560
2022-09-23T20:32:50.337Z,982.552
2022-09-23T20:34:49.929Z,982.523
2022-09-23T20:36:50.209Z,982.546
2022-09-23T20:38:50.065Z,982.526
2022-09-23T20:40:51.034Z,982.506
2022-09-23T20:42:50.070Z,982.505
2022-09-23T20:44:50.726Z,982.534
2022-09-23T20:46:50.253Z,982.518
2022-09-23T20:48:50.359Z,982.493
2022-09-23T20:50:50.336Z,982.481
2022-09-23T20:52:50.319Z,982.545
2022-09-23T20:54:50.232Z,982.549
2022-09-23T20:56:50.183Z,982.542
2022-09-23T20:58:50.038Z,982.542
2022-09-23T21:00:50.184Z,982.589
2022-09-23T21:02:50.172Z,982.611
2022-09-23T21:04:50.406Z,982.598
2022-09-23T21:06:50.714Z,982.601
2022-09-23T21:08:50.559Z,982.583
2022-09-23T21:10:50.480Z,982.560
2022-09-23T21:12:50.222Z,982.586
2022-09-23T21:14:50.118Z,982.590
2022-09-23T21:16:50.394Z,982.531
2022-09-23T21:18:50.136Z,982.559
2022-09-23T21:20:50.124Z,982.552
2022-09-23T21:22:49.787Z,982.552
2022-09-23T21:25:27.771Z,982.517
2022-09-23T21:26:50.753Z,982.486
2022-09-23T21:28:50.760Z,982.495
2022-09-23T21:30:52.395Z,982.523
2022-09-23T21:32:50.141Z,982.466
2022-09-23T21:34:50.358Z,982.481
2022-09-23T21:36:50.551Z,982.475
2022-09-23T21:38:50.350Z,982.445
2022-09-23T21:40:50.544Z,982.510
2022-09-23T21:42:49.829Z,982.470
2022-09-23T21:44:50.614Z,982.482
2022-09-23T21:46:50.798Z,982.507
2022-09-23T21:48:50.752Z,982.449
2022-09-23T21:50:50.587Z,982.432
2022-09-23T21:52:50.570Z,982.433
2022-09-23T21:54:50.344Z,982.412
2022-09-23T21:56:50.520Z,982.408
2022-09-23T21:58:50.398Z,982.411
2022-09-23T22:00:50.652Z,982.454
2022-09-23T22:02:50.738Z,982.431
2022-09-23T22:04:49.944Z,982.421
2022-09-23T22:06:50.087Z,982.429
2022-09-23T22:08:50.009Z,982.355
2022-09-23T22:10:49.969Z,982.359
2022-09-23T22:12:49.916Z,982.304
2022-09-23T22:14:50.695Z,982.325
2022-09-23T22:16:50.775Z,982.345
2022-09-23T22:18:50.488Z,982.282
2022-09-23T22:20:50.396Z,982.269
2022-09-23T22:22:50.349Z,982.232
2022-09-23T22:24:50.062Z,982.182
2022-09-23T22:26:50.294Z,982.167
2022-09-23T22:28:50.044Z,982.167
2022-09-23T22:30:49.913Z,982.181
2022-09-23T22:32:55.562Z,982.185
2022-09-23T22:34:52.924Z,982.178
2022-09-23T22:36:50.501Z,982.186
2022-09-23T22:38:50.436Z,982.176
2022-09-23T22:40:50.508Z,982.191
2022-09-23T22:42:50.593Z,982.222
2022-09-23T22:44:50.399Z,982.212
2022-09-23T22:46:50.873Z,982.232
2022-09-23T22:48:50.181Z,982.262
2022-09-23T22:50:50.068Z,982.195
2022-09-23T22:52:49.977Z,982.196
2022-09-23T22:54:49.810Z,982.236
2022-09-23T22:56:50.003Z,982.229
2022-09-23T22:58:50.703Z,982.231
2022-09-23T23:00:50.476Z,982.256
2022-09-23T23:02:50.590Z,982.287
2022-09-23T23:04:50.129Z,982.281
2022-09-23T23:06:50.315Z,982.249
2022-09-23T23:08:50.300Z,982.276
2022-09-23T23:10:50.138Z,982.303
2022-09-23T23:12:49.847Z,982.265
2022-09-23T23:14:50.762Z,982.252
2022-09-23T23:16:49.930Z,982.221
2022-09-23T23:18:50.556Z,982.240
2022-09-23T23:20:50.476Z,982.218
2022-09-23T23:22:50.366Z,982.235
2022-09-23T23:24:50.318Z,982.205
2022-09-23T23:26:50.498Z,982.208
2022-09-23T23:28:50.263Z,982.207
2022-09-23T23:30:50.196Z,982.233
2022-09-23T23:32:50.146Z,982.196
2022-09-23T23:34:50.357Z,982.177
2022-09-23T23:36:50.365Z,982.173
2022-09-23T23:38:50.090Z,982.159
2022-09-23T23:40:50.129Z,982.152
2022-09-23T23:42:50.193Z,982.117
2022-09-23T23:44:50.010Z,982.095
2022-09-23T23:46:50.409Z,982.071
2022-09-23T23:48:50.755Z,982.078
2022-09-23T23:50:50.655Z,982.028
2022-09-23T23:52:50.463Z,982.060
2022-09-23T23:54:50.565Z,982.079
2022-09-23T23:56:49.875Z,982.052
2022-09-23T23:58:50.718Z,982.037
